Route Details

Aircraft Information
Group: North America Fleet
Types: B738, B752, B762, B763
Route Data
Distance: 467nm
Duration: 1h 50m
Origin METAR: KHSV 170553Z AUTO 02004KT 10SM FEW060 BKN090 22/18 A2998 RMK AO2 SLP145 T02220183 10250 20222 402780200 56006
Dest. METAR: KRFD 171054Z 00000KT 10SM FEW250 13/11 A3015 RMK AO2 SLP207 T01330111
Freight Data
(for Aug 18, 2022)
Load Factor:
40%
Manifested Cargo: 49,271lbs
Financial History
Total Freight: 555,093lbs
Average Load: 0lbs/flt
Fuel Used: 94,379lbs
Avg. Fuel Used: 0lbs/flt
Fuel Expense: $84,941
Avg. Fuel Expense: $0
Avg. Fuel Cost: $0/lbs
Total Gross Income: $718,942
Pilot Pay: $1,134
Total Expenses: $77,958
Total Revenue: $553,964
Average Revenue: $0

Capitol Logistics 313




KHSV
Huntsville International Airport
Huntsville, Alabama
KRFD
Chicago/Rockford International Airport
Rockford, Illinois

Activity Log

Date Flight Route Aircraft Duration
01/25/2020 CPX242 RQZ BNA J73 GUIDO JOT B763 1h 42m
10/24/2019 CPX242 SALMS J39 BNA J73 OBK B763 1h 36m
07/31/2019 CPX242 KHSV/36L RQZ BNA J73 GUIDO JOT KRFD/07 B763 1h 26m
07/26/2019 CPX242 RQZ BNA J73 GUIDO JOT B763 1h 36m
07/18/2019 CPX242 RQZ BNA J73 GUIDO JOT B763 1h 34m
02/17/2019 CPX242 RQZ BNA J73 GUIDO JOT B763 1h 28m